createdAt,value
2022-11-16T00:00:16.163Z,88.84
2022-11-16T00:02:43.480Z,88.81
2022-11-16T00:05:42.820Z,89.53
2022-11-16T00:08:17.272Z,90.50
2022-11-16T00:10:55.570Z,90.53
2022-11-16T00:13:29.896Z,91.31
2022-11-16T00:18:45.121Z,91.59
2022-11-16T00:21:17.062Z,91.86
2022-11-16T00:24:04.952Z,92.47
2022-11-16T00:26:45.054Z,91.79
2022-11-16T00:29:44.281Z,92.02
2022-11-16T00:32:11.784Z,91.48
2022-11-16T00:34:41.992Z,91.35
2022-11-16T00:37:22.491Z,91.12
2022-11-16T00:39:55.396Z,90.91
2022-11-16T00:45:25.501Z,91.10
2022-11-16T00:48:00.564Z,91.62
2022-11-16T00:50:36.618Z,91.75
2022-11-16T00:53:21.656Z,91.55
2022-11-16T00:55:55.363Z,91.46
2022-11-16T00:58:42.734Z,91.47
2022-11-16T01:01:14.174Z,91.20
2022-11-16T01:03:51.576Z,91.52
2022-11-16T01:06:27.676Z,91.97
2022-11-16T01:08:59.021Z,92.50
2022-11-16T01:11:41.702Z,92.19
2022-11-16T01:14:18.361Z,92.50
2022-11-16T01:16:56.237Z,92.70
2022-11-16T01:19:33.500Z,93.07
2022-11-16T01:22:10.392Z,93.21
2022-11-16T01:24:45.442Z,93.47
2022-11-16T01:27:16.252Z,93.76
2022-11-16T01:29:43.950Z,93.57
2022-11-16T01:32:18.959Z,93.23
2022-11-16T01:34:54.517Z,93.17
2022-11-16T01:37:34.256Z,93.34
2022-11-16T01:40:07.162Z,93.37
2022-11-16T01:42:57.542Z,92.64
2022-11-16T01:45:41.487Z,92.61
2022-11-16T01:48:23.685Z,92.40
2022-11-16T01:50:56.836Z,92.62
2022-11-16T01:53:43.289Z,92.81
2022-11-16T01:56:19.382Z,93.29
2022-11-16T01:59:01.000Z,93.30
2022-11-16T02:01:32.330Z,93.19
2022-11-16T02:03:59.481Z,93.47
2022-11-16T02:06:26.903Z,93.59
2022-11-16T02:09:29.429Z,93.49
2022-11-16T02:12:03.494Z,93.56
2022-11-16T02:14:59.535Z,93.44
2022-11-16T02:17:34.916Z,93.85
2022-11-16T02:20:23.178Z,94.03
2022-11-16T02:23:10.877Z,93.74
2022-11-16T02:26:01.081Z,93.90
2022-11-16T02:28:47.166Z,94.46
2022-11-16T02:31:26.723Z,94.42
2022-11-16T02:34:04.684Z,94.34
2022-11-16T02:36:38.880Z,94.82
2022-11-16T02:39:19.077Z,94.74
2022-11-16T02:41:49.623Z,94.66
2022-11-16T02:44:27.899Z,94.79
2022-11-16T02:47:00.297Z,94.60
2022-11-16T02:49:35.738Z,94.61
2022-11-16T02:52:19.323Z,94.81
2022-11-16T02:54:54.467Z,94.36
2022-11-16T02:57:43.002Z,94.23
2022-11-16T03:00:18.902Z,94.08
2022-11-16T03:02:54.778Z,94.09
2022-11-16T03:05:46.651Z,93.07
2022-11-16T03:08:23.155Z,93.31
2022-11-16T03:10:58.939Z,92.61
2022-11-16T03:13:33.829Z,92.44
2022-11-16T03:16:08.202Z,92.51
2022-11-16T03:18:41.470Z,92.71
2022-11-16T03:21:27.556Z,92.64
2022-11-16T03:23:55.163Z,92.32
2022-11-16T03:26:25.637Z,92.71
2022-11-16T03:29:12.213Z,92.91
2022-11-16T03:31:49.138Z,92.96
2022-11-16T03:34:28.316Z,93.41
2022-11-16T03:36:58.043Z,93.33
2022-11-16T03:39:36.363Z,93.39
2022-11-16T03:42:12.642Z,93.04
2022-11-16T03:44:50.588Z,93.39
2022-11-16T03:47:27.519Z,93.31
2022-11-16T03:50:03.540Z,93.47
2022-11-16T03:52:41.508Z,94.00
2022-11-16T03:55:15.037Z,93.91
2022-11-16T03:57:47.115Z,94.19
2022-11-16T04:00:20.895Z,94.45
2022-11-16T04:02:52.070Z,94.47
2022-11-16T04:05:20.076Z,94.22
2022-11-16T04:07:49.232Z,94.24
2022-11-16T04:10:23.918Z,94.36
2022-11-16T04:12:54.373Z,94.25
2022-11-16T04:15:24.174Z,94.02
2022-11-16T04:17:53.671Z,94.30
2022-11-16T04:20:31.137Z,94.80
2022-11-16T04:23:17.462Z,95.02
2022-11-16T04:25:52.806Z,95.77
2022-11-16T04:31:19.962Z,95.48
2022-11-16T04:33:51.045Z,95.42
2022-11-16T04:36:32.654Z,95.40
2022-11-16T04:39:03.119Z,95.56
2022-11-16T04:41:33.796Z,95.19
2022-11-16T04:44:01.105Z,95.06
2022-11-16T04:46:31.050Z,95.36
2022-11-16T04:49:03.037Z,95.44
2022-11-16T04:51:52.133Z,94.82
2022-11-16T04:54:24.138Z,95.67
2022-11-16T04:56:54.570Z,95.19
2022-11-16T04:59:23.858Z,95.37
2022-11-16T05:01:57.323Z,95.40
2022-11-16T05:04:47.607Z,95.53
2022-11-16T05:07:31.548Z,95.58
2022-11-16T05:10:14.609Z,95.61
2022-11-16T05:12:47.283Z,95.59
2022-11-16T05:15:15.048Z,95.57
2022-11-16T05:18:04.116Z,95.91
2022-11-16T05:20:42.337Z,96.25
2022-11-16T05:23:12.486Z,95.75
2022-11-16T05:25:48.806Z,96.25
2022-11-16T05:28:25.407Z,96.45
2022-11-16T05:30:54.814Z,96.35
2022-11-16T05:33:28.456Z,96.58
2022-11-16T05:36:03.303Z,96.60
2022-11-16T05:38:36.688Z,96.15
2022-11-16T05:43:55.816Z,97.13
2022-11-16T05:46:38.237Z,96.99
2022-11-16T05:49:08.963Z,97.10
2022-11-16T05:52:34.977Z,97.13
2022-11-16T05:57:43.771Z,96.90
2022-11-16T06:00:17.541Z,96.91
2022-11-16T06:02:49.365Z,97.01
2022-11-16T06:05:40.699Z,96.81
2022-11-16T06:08:42.407Z,96.86
2022-11-16T06:11:11.367Z,96.46
2022-11-16T06:14:22.494Z,96.12
2022-11-16T06:20:43.681Z,95.93
2022-11-16T06:23:34.557Z,95.91
2022-11-16T06:29:40.999Z,95.54
2022-11-16T06:32:15.424Z,95.61
2022-11-16T06:34:46.278Z,95.41
2022-11-16T06:43:05.942Z,94.09
2022-11-16T06:46:24.479Z,94.38
2022-11-16T06:49:00.221Z,94.41
2022-11-16T06:51:38.592Z,93.92
2022-11-16T06:54:44.969Z,93.69
2022-11-16T06:57:18.995Z,93.21
2022-11-16T06:59:50.368Z,93.70
2022-11-16T07:34:13.000Z,91.77
2022-11-16T07:36:21.410Z,91.68
2022-11-16T07:38:51.979Z,91.57
2022-11-16T07:41:20.663Z,91.24
2022-11-16T08:05:10.729Z,89.47
2022-11-16T08:08:05.967Z,88.87
2022-11-16T08:14:11.484Z,87.99
2022-11-16T08:16:44.034Z,87.54
2022-11-16T08:23:01.131Z,86.00
2022-11-16T08:25:37.329Z,86.84
2022-11-16T08:28:09.287Z,88.03
2022-11-16T08:30:43.439Z,88.37
2022-11-16T08:33:18.288Z,88.47
2022-11-16T08:38:46.327Z,87.14
2022-11-16T08:44:12.361Z,87.75
2022-11-16T08:46:48.861Z,87.84
2022-11-16T08:52:47.326Z,85.52
2022-11-16T08:55:26.420Z,85.80
2022-11-16T08:58:35.878Z,86.00
2022-11-16T09:01:18.061Z,85.29
2022-11-16T09:03:46.842Z,83.97
2022-11-16T09:09:40.613Z,83.54
2022-11-16T09:29:16.214Z,83.06
2022-11-16T09:32:09.433Z,82.63
2022-11-16T09:34:55.925Z,81.01
2022-11-16T09:51:11.240Z,80.11
2022-11-16T09:54:15.972Z,80.86
2022-11-16T09:57:18.879Z,80.08
2022-11-16T10:00:13.607Z,79.09
2022-11-16T10:03:15.136Z,77.10
2022-11-16T10:06:00.659Z,76.51
2022-11-16T10:08:52.491Z,74.34
2022-11-16T10:12:04.890Z,72.73
2022-11-16T10:25:26.370Z,66.05
2022-11-16T10:28:05.917Z,65.59
2022-11-16T10:30:44.979Z,65.51
2022-11-16T10:33:18.955Z,64.83
2022-11-16T10:35:50.090Z,63.26
2022-11-16T10:38:20.475Z,65.69
2022-11-16T10:40:52.732Z,64.80
2022-11-16T10:43:31.406Z,65.13
2022-11-16T10:46:24.569Z,64.80
2022-11-16T10:49:07.359Z,61.60
2022-11-16T10:51:34.246Z,63.63
2022-11-16T10:54:01.380Z,61.75
2022-11-16T10:56:42.730Z,61.36
2022-11-16T10:59:11.559Z,62.08
2022-11-16T11:01:41.084Z,63.06
2022-11-16T11:04:30.013Z,65.19
2022-11-16T11:07:29.399Z,66.83
2022-11-16T11:09:57.141Z,66.67
2022-11-16T11:12:26.245Z,67.62
2022-11-16T11:15:26.281Z,69.06
2022-11-16T11:18:17.482Z,69.06
2022-11-16T11:20:48.751Z,68.90
2022-11-16T11:23:26.453Z,66.98
2022-11-16T11:26:01.221Z,66.64
2022-11-16T11:28:30.098Z,68.79
2022-11-16T11:31:04.199Z,68.45
2022-11-16T11:33:41.595Z,69.08
2022-11-16T11:36:16.011Z,69.00
2022-11-16T11:42:21.324Z,67.65
2022-11-16T11:45:00.285Z,68.20
2022-11-16T11:47:57.320Z,70.84
2022-11-16T11:50:47.960Z,69.74
2022-11-16T11:53:47.731Z,69.00
2022-11-16T11:56:15.284Z,68.57
2022-11-16T11:58:43.609Z,68.29
2022-11-16T12:01:29.050Z,68.34
2022-11-16T12:04:33.233Z,68.36
2022-11-16T12:07:22.337Z,69.60
2022-11-16T12:10:01.486Z,69.15
2022-11-16T12:12:44.214Z,69.11
2022-11-16T12:15:34.084Z,69.31
2022-11-16T12:18:39.213Z,69.52
2022-11-16T12:21:20.932Z,69.58
2022-11-16T12:24:03.240Z,69.35
2022-11-16T12:26:54.168Z,69.73
2022-11-16T12:29:24.635Z,70.38
2022-11-16T12:32:11.092Z,70.47
2022-11-16T12:34:37.993Z,70.68
2022-11-16T12:37:16.513Z,71.63
2022-11-16T12:39:49.432Z,71.76
2022-11-16T12:42:21.857Z,71.27
2022-11-16T12:45:13.898Z,70.75
2022-11-16T12:47:59.000Z,70.42
2022-11-16T12:50:45.515Z,70.23
2022-11-16T12:53:41.167Z,70.24
2022-11-16T12:56:17.001Z,70.09
2022-11-16T12:59:15.536Z,70.18
2022-11-16T13:02:06.123Z,70.06
2022-11-16T13:04:42.528Z,69.38
2022-11-16T13:07:19.471Z,69.52
2022-11-16T13:09:51.430Z,69.66
2022-11-16T13:12:22.216Z,69.41
2022-11-16T13:14:53.617Z,69.32
2022-11-16T13:17:39.873Z,69.44
2022-11-16T13:20:15.095Z,69.80
2022-11-16T13:22:51.401Z,70.03
2022-11-16T13:25:23.737Z,69.56
2022-11-16T13:27:55.734Z,70.27
2022-11-16T13:30:27.873Z,70.57
2022-11-16T13:33:25.410Z,71.61
2022-11-16T13:35:52.552Z,71.61
2022-11-16T13:38:52.322Z,72.24
2022-11-16T13:41:36.236Z,72.56
2022-11-16T13:44:11.155Z,72.90
2022-11-16T13:47:00.214Z,73.18
2022-11-16T13:49:29.722Z,73.40
2022-11-16T13:52:26.633Z,73.10
2022-11-16T13:54:55.699Z,72.86
2022-11-16T13:57:27.085Z,73.12
2022-11-16T14:00:09.606Z,73.42
2022-11-16T14:02:39.840Z,73.18
2022-11-16T14:05:12.700Z,73.45
2022-11-16T14:07:40.797Z,74.04
2022-11-16T14:10:07.812Z,73.72
2022-11-16T14:12:37.672Z,73.57
2022-11-16T14:15:22.371Z,73.69
2022-11-16T14:18:07.796Z,73.54
2022-11-16T14:20:57.807Z,73.61
2022-11-16T14:23:49.358Z,73.52
2022-11-16T14:26:37.417Z,73.93
2022-11-16T14:29:04.237Z,74.29
2022-11-16T14:31:55.323Z,74.29
2022-11-16T14:34:32.600Z,74.54
2022-11-16T14:37:00.520Z,74.55
2022-11-16T14:39:32.118Z,74.89
2022-11-16T14:42:03.752Z,74.86
2022-11-16T14:44:35.720Z,74.99
2022-11-16T14:47:03.283Z,74.70
2022-11-16T14:49:34.748Z,74.85
2022-11-16T14:52:04.023Z,75.61
2022-11-16T14:54:47.958Z,75.83
2022-11-16T14:57:20.513Z,75.87
2022-11-16T14:59:47.719Z,76.42
2022-11-16T15:02:25.714Z,77.30
2022-11-16T15:04:54.614Z,76.82
2022-11-16T15:07:26.741Z,77.16
2022-11-16T15:09:57.327Z,77.21
2022-11-16T15:12:28.157Z,76.91
2022-11-16T15:14:58.049Z,76.53
2022-11-16T15:17:31.845Z,76.73
2022-11-16T15:20:02.246Z,76.75
2022-11-16T15:22:39.278Z,76.72
2022-11-16T15:25:31.399Z,76.97
2022-11-16T15:28:01.576Z,77.18
2022-11-16T15:30:36.643Z,77.29
2022-11-16T15:33:10.085Z,77.22
2022-11-16T15:35:38.247Z,77.77
2022-11-16T15:38:25.810Z,78.27
2022-11-16T15:40:55.257Z,78.72
2022-11-16T15:43:25.800Z,79.00
2022-11-16T15:45:53.406Z,79.00
2022-11-16T15:48:27.641Z,79.38
2022-11-16T15:51:05.165Z,79.21
2022-11-16T15:53:39.271Z,80.01
2022-11-16T15:56:16.155Z,80.14
2022-11-16T15:58:43.396Z,80.70
2022-11-16T16:01:12.123Z,80.48
2022-11-16T16:03:39.353Z,80.68
2022-11-16T16:06:07.045Z,81.01
2022-11-16T16:08:38.656Z,81.51
2022-11-16T16:11:27.048Z,82.02
2022-11-16T16:13:59.854Z,82.01
2022-11-16T16:16:30.446Z,82.51
2022-11-16T16:19:08.159Z,82.68
2022-11-16T16:21:46.944Z,83.61
2022-11-16T16:24:36.161Z,83.64
2022-11-16T16:27:03.096Z,83.79
2022-11-16T16:29:29.870Z,83.82
2022-11-16T16:31:56.724Z,83.69
2022-11-16T16:34:23.474Z,83.69
2022-11-16T16:36:50.290Z,83.87
2022-11-16T16:39:17.171Z,84.08
2022-11-16T16:41:44.320Z,84.14
2022-11-16T16:44:17.926Z,84.19
2022-11-16T16:46:45.216Z,84.21
2022-11-16T16:49:12.046Z,84.91
2022-11-16T16:51:38.888Z,85.34
2022-11-16T16:54:06.036Z,85.81
2022-11-16T16:56:33.125Z,86.31
2022-11-16T16:59:00.330Z,86.84
2022-11-16T17:01:27.545Z,87.11
2022-11-16T17:03:54.380Z,87.74
2022-11-16T17:06:21.379Z,87.88
2022-11-16T17:08:48.438Z,88.23
2022-11-16T17:11:15.326Z,87.97
2022-11-16T17:13:42.168Z,88.28
2022-11-16T17:16:09.810Z,88.14
2022-11-16T17:18:36.687Z,87.72
2022-11-16T17:21:08.527Z,87.94
2022-11-16T17:23:37.038Z,88.42
2022-11-16T17:26:05.848Z,88.92
2022-11-16T17:28:33.843Z,89.02
2022-11-16T17:31:05.423Z,89.53
2022-11-16T17:33:36.806Z,89.76
2022-11-16T17:36:05.806Z,89.84
2022-11-16T17:38:35.954Z,90.53
2022-11-16T17:41:14.170Z,90.66
2022-11-16T17:43:43.122Z,90.65
2022-11-16T17:46:12.597Z,90.02
2022-11-16T17:48:41.497Z,90.40
2022-11-16T17:51:09.434Z,90.82
2022-11-16T17:53:38.156Z,90.84
2022-11-16T17:59:02.201Z,90.77
2022-11-16T18:01:30.466Z,90.47
2022-11-16T18:03:58.646Z,91.32
2022-11-16T18:06:40.321Z,91.74
2022-11-16T18:09:08.094Z,91.95
2022-11-16T18:11:37.254Z,92.44
2022-11-16T18:14:05.574Z,92.61
2022-11-16T18:16:34.473Z,92.59
2022-11-16T18:19:06.898Z,92.39
2022-11-16T18:21:42.082Z,92.74
2022-11-16T18:24:10.831Z,93.46
2022-11-16T18:26:39.445Z,94.04
2022-11-16T18:29:08.790Z,93.90
2022-11-16T18:31:37.793Z,93.81
2022-11-16T18:34:06.178Z,93.83
2022-11-16T18:36:34.125Z,93.36
2022-11-16T18:39:01.756Z,93.82
2022-11-16T18:41:30.246Z,93.74
2022-11-16T18:44:00.742Z,93.35
2022-11-16T18:46:33.332Z,93.22
2022-11-16T18:49:01.484Z,93.28
2022-11-16T18:51:31.081Z,93.32
2022-11-16T18:54:00.889Z,93.29
2022-11-16T18:56:28.398Z,93.15
2022-11-16T18:58:55.982Z,93.91
2022-11-16T19:01:25.402Z,93.89
2022-11-16T19:03:53.936Z,93.68
2022-11-16T19:06:22.100Z,94.00
2022-11-16T19:08:55.980Z,93.84
2022-11-16T19:11:24.492Z,94.22
2022-11-16T19:13:57.442Z,94.39
2022-11-16T19:16:25.852Z,94.84
2022-11-16T19:18:53.935Z,94.58
2022-11-16T19:21:23.641Z,94.64
2022-11-16T19:23:56.004Z,94.33
2022-11-16T19:26:28.041Z,94.39
2022-11-16T19:28:57.598Z,94.60
2022-11-16T19:31:28.211Z,94.97
2022-11-16T19:33:58.356Z,95.17
2022-11-16T19:36:29.053Z,95.08
2022-11-16T19:38:58.527Z,95.05
2022-11-16T19:41:28.281Z,95.40
2022-11-16T19:44:01.417Z,95.41
2022-11-16T19:46:34.875Z,95.70
2022-11-16T19:49:02.849Z,95.77
2022-11-16T19:51:33.253Z,96.15
2022-11-16T19:54:02.897Z,96.19
2022-11-16T19:56:31.699Z,96.41
2022-11-16T19:58:59.539Z,96.74
2022-11-16T20:01:30.477Z,96.71
2022-11-16T20:04:03.777Z,96.60
2022-11-16T20:06:39.031Z,96.28
2022-11-16T20:09:11.245Z,96.08
2022-11-16T20:11:44.053Z,95.76
2022-11-16T20:14:15.701Z,96.08
2022-11-16T20:16:49.327Z,96.08
2022-11-16T20:19:20.696Z,96.55
2022-11-16T20:21:49.993Z,96.90
2022-11-16T20:24:18.919Z,96.87
2022-11-16T20:26:48.799Z,96.99
2022-11-16T20:29:19.204Z,96.89
2022-11-16T20:31:47.117Z,96.75
2022-11-16T20:34:17.611Z,96.40
2022-11-16T20:36:48.309Z,96.80
2022-11-16T20:39:21.853Z,96.43
2022-11-16T20:41:51.047Z,96.60
2022-11-16T20:44:19.857Z,96.43
2022-11-16T20:46:47.729Z,96.20
2022-11-16T20:49:16.171Z,96.18
2022-11-16T20:51:46.156Z,97.04
2022-11-16T20:54:14.481Z,97.57
2022-11-16T20:56:46.635Z,97.58
2022-11-16T20:59:14.713Z,97.36
2022-11-16T21:01:43.654Z,97.21
2022-11-16T21:04:17.725Z,96.75
2022-11-16T21:06:46.193Z,96.53
2022-11-16T21:09:16.605Z,96.55
2022-11-16T21:11:44.714Z,96.71
2022-11-16T21:14:12.887Z,96.75
2022-11-16T21:16:42.336Z,96.82
2022-11-16T21:19:11.609Z,96.92
2022-11-16T21:21:41.980Z,96.65
2022-11-16T21:24:12.354Z,96.24
2022-11-16T21:26:41.160Z,96.37
2022-11-16T21:29:11.125Z,95.99
2022-11-16T21:31:40.846Z,96.14
2022-11-16T21:34:09.815Z,96.02
2022-11-16T21:36:36.978Z,96.43
2022-11-16T21:39:04.215Z,95.84
2022-11-16T21:41:31.259Z,95.42
2022-11-16T21:43:58.352Z,95.24
2022-11-16T21:46:27.064Z,95.37
2022-11-16T21:48:55.417Z,95.27
2022-11-16T21:51:23.805Z,95.53
2022-11-16T21:53:50.957Z,95.44
2022-11-16T21:56:20.054Z,95.74
2022-11-16T21:58:47.976Z,95.75
2022-11-16T22:01:16.438Z,96.03
2022-11-16T22:03:44.481Z,96.11
2022-11-16T22:06:17.215Z,96.35
2022-11-16T22:08:45.533Z,96.07
2022-11-16T22:11:13.896Z,96.04
2022-11-16T22:13:42.526Z,96.21
2022-11-16T22:16:14.789Z,96.03
2022-11-16T22:18:42.976Z,96.24
2022-11-16T22:21:10.643Z,96.60
2022-11-16T22:23:37.914Z,96.54
2022-11-16T22:26:08.252Z,96.93
2022-11-16T22:28:36.514Z,97.09
2022-11-16T22:31:09.656Z,96.80
2022-11-16T22:33:37.160Z,96.80
2022-11-16T22:36:05.293Z,96.70
2022-11-16T22:38:32.131Z,96.80
2022-11-16T22:40:58.897Z,96.69
2022-11-16T22:43:28.403Z,96.95
2022-11-16T22:46:03.718Z,97.17
2022-11-16T22:48:37.882Z,97.26
2022-11-16T22:51:33.917Z,97.07
2022-11-16T22:54:03.057Z,97.13
2022-11-16T22:56:32.012Z,97.18
2022-11-16T22:58:59.191Z,97.33
2022-11-16T23:01:26.291Z,96.95
2022-11-16T23:03:53.164Z,96.97
2022-11-16T23:06:20.385Z,97.23
2022-11-16T23:08:47.970Z,96.97
2022-11-16T23:11:16.901Z,97.23
2022-11-16T23:13:44.554Z,97.24
2022-11-16T23:16:11.425Z,96.71
2022-11-16T23:18:38.277Z,96.46
2022-11-16T23:21:05.284Z,96.70
2022-11-16T23:23:32.606Z,96.63
2022-11-16T23:25:59.553Z,96.62
2022-11-16T23:28:26.596Z,97.33
2022-11-16T23:30:53.535Z,97.48
2022-11-16T23:33:20.477Z,97.65
2022-11-16T23:35:47.404Z,97.78
2022-11-16T23:38:14.296Z,97.92
2022-11-16T23:40:41.215Z,97.89
2022-11-16T23:43:10.561Z,97.64
2022-11-16T23:45:38.921Z,97.89
2022-11-16T23:48:07.884Z,97.85
2022-11-16T23:50:35.160Z,97.67
2022-11-16T23:53:02.682Z,98.04
2022-11-16T23:55:31.795Z,97.79
2022-11-16T23:57:58.694Z,97.81
